Time;durP1;ratioP1;P1;durP2;ratioP2;P2;SDS_P1;SDS_P2;PMS_P1;PMS_P2;Temp;Humidity;BMP_temperature;BMP_pressure;BME280_temperature;BME280_humidity;BME280_pressure;Samples;Min_cycle;Max_cycle;Signal;HPM_P1;HPM_P2
2023/10/27 00:00:51;;;;;;;495.08;349.88;;;27.60;99.90;;;;;;5068508;28;20039;-63
2023/10/27 00:03:18;;;;;;;423.38;288.65;;;27.70;99.90;;;;;;5066424;28;20485;-63
2023/10/27 00:05:45;;;;;;;521.03;371.23;;;27.70;99.90;;;;;;5063096;28;20504;-62
2023/10/27 00:08:13;;;;;;;382.92;250.00;;;27.70;99.90;;;;;;5066972;28;20032;-62
2023/10/27 00:10:40;;;;;;;357.85;224.88;;;27.80;99.90;;;;;;5067051;28;20021;-62
2023/10/27 00:13:06;;;;;;;368.90;250.38;;;27.90;99.90;;;;;;5067443;28;20029;-61
2023/10/27 00:15:33;;;;;;;357.58;234.48;;;27.90;99.90;;;;;;5066857;28;20056;-61
2023/10/27 00:18:00;;;;;;;369.98;252.55;;;27.90;99.90;;;;;;5067465;28;20012;-61
2023/10/27 00:20:27;;;;;;;357.15;248.38;;;28.00;99.90;;;;;;5067288;28;20064;-61
2023/10/27 00:22:54;;;;;;;366.75;237.98;;;28.00;99.90;;;;;;5066579;28;20405;-62
2023/10/27 00:25:20;;;;;;;323.48;213.25;;;28.00;99.90;;;;;;5069644;28;20036;-62
2023/10/27 00:27:47;;;;;;;273.75;185.68;;;28.10;99.90;;;;;;5068905;28;20443;-61
2023/10/27 00:30:14;;;;;;;271.15;177.63;;;28.10;99.90;;;;;;5066527;28;20013;-61
2023/10/27 00:32:40;;;;;;;252.00;168.70;;;28.20;99.90;;;;;;5066849;28;20012;-62
2023/10/27 00:35:07;;;;;;;250.38;167.57;;;28.30;99.90;;;;;;5066874;28;20020;-62
2023/10/27 00:37:35;;;;;;;251.48;161.93;;;28.30;99.90;;;;;;5066240;28;20021;-62
2023/10/27 00:40:03;;;;;;;222.63;146.70;;;28.30;99.90;;;;;;5067082;28;20032;-62
2023/10/27 00:42:30;;;;;;;334.52;241.93;;;28.30;99.90;;;;;;5066274;28;20037;-62
2023/10/27 00:44:57;;;;;;;379.75;264.77;;;28.40;99.90;;;;;;5066496;28;20016;-63
2023/10/27 00:47:26;;;;;;;282.55;194.38;;;28.50;99.90;;;;;;5066902;28;20020;-61
2023/10/27 00:49:55;;;;;;;265.65;187.27;;;28.60;99.90;;;;;;5064966;28;20047;-62
2023/10/27 00:52:24;;;;;;;209.57;141.82;;;28.60;99.90;;;;;;5065155;28;20024;-62
2023/10/27 00:54:52;;;;;;;194.65;132.68;;;28.70;99.90;;;;;;5067071;28;20025;-61
2023/10/27 00:57:20;;;;;;;189.00;127.72;;;28.70;99.90;;;;;;5065437;28;20404;-62
2023/10/27 00:59:47;;;;;;;195.05;126.38;;;28.80;99.90;;;;;;5064371;28;20029;-63
2023/10/27 01:02:16;;;;;;;176.38;118.70;;;28.80;99.90;;;;;;5060327;28;20538;-63
2023/10/27 01:04:43;;;;;;;171.35;116.00;;;28.90;99.90;;;;;;5064694;28;20040;-64
2023/10/27 01:07:10;;;;;;;202.65;141.75;;;28.90;99.90;;;;;;5063983;28;20016;-63
2023/10/27 01:09:37;;;;;;;249.10;169.15;;;29.00;99.90;;;;;;5065725;28;20530;-64
2023/10/27 01:12:04;;;;;;;208.55;141.50;;;29.10;99.90;;;;;;5064770;28;20025;-64
2023/10/27 01:14:31;;;;;;;239.35;162.25;;;29.10;99.90;;;;;;5063886;28;20044;-63
2023/10/27 01:16:57;;;;;;;189.55;127.95;;;29.20;99.90;;;;;;5065415;28;20119;-64
2023/10/27 01:19:24;;;;;;;171.93;117.25;;;29.20;99.90;;;;;;5070780;28;20066;-65
2023/10/27 01:21:51;;;;;;;187.50;119.43;;;29.20;99.90;;;;;;5075456;28;20031;-63
2023/10/27 01:24:17;;;;;;;164.57;113.60;;;29.30;99.90;;;;;;5075408;28;20516;-61
2023/10/27 01:26:44;;;;;;;177.52;116.30;;;29.30;99.90;;;;;;5075663;28;20101;-63
2023/10/27 01:29:11;;;;;;;158.73;113.22;;;29.40;99.90;;;;;;5075202;28;20035;-63
2023/10/27 01:31:38;;;;;;;157.43;107.72;;;29.50;99.90;;;;;;5074953;28;20413;-61
2023/10/27 01:34:04;;;;;;;154.10;108.07;;;29.60;99.90;;;;;;5075573;28;20031;-63
2023/10/27 01:36:31;;;;;;;244.40;168.32;;;29.60;99.90;;;;;;5074910;28;20025;-63
2023/10/27 01:38:58;;;;;;;224.10;159.38;;;29.70;99.90;;;;;;5075050;28;20024;-63
2023/10/27 01:41:25;;;;;;;159.98;113.38;;;29.70;99.90;;;;;;5074860;28;20028;-61
2023/10/27 01:43:51;;;;;;;159.15;113.47;;;29.80;99.90;;;;;;5074712;28;20029;-63
2023/10/27 01:46:18;;;;;;;144.27;102.22;;;29.90;99.90;;;;;;5075264;28;20056;-63
2023/10/27 01:48:45;;;;;;;232.27;136.73;;;29.80;99.90;;;;;;5070989;28;20025;-63
2023/10/27 01:51:12;;;;;;;129.73;91.07;;;29.90;99.90;;;;;;5063555;28;20040;-62
2023/10/27 01:53:39;;;;;;;128.55;90.40;;;29.90;99.90;;;;;;5054807;28;20036;-63
2023/10/27 01:56:06;;;;;;;119.07;86.72;;;29.90;99.90;;;;;;5054896;28;20024;-63
2023/10/27 01:58:33;;;;;;;134.15;99.68;;;30.00;99.90;;;;;;5054807;28;20099;-66
2023/10/27 02:01:00;;;;;;;152.68;108.60;;;30.00;99.90;;;;;;5054549;28;20102;-64
2023/10/27 02:03:27;;;;;;;158.48;106.18;;;30.00;99.90;;;;;;5054310;28;20054;-64
2023/10/27 02:05:53;;;;;;;159.55;115.47;;;30.00;99.90;;;;;;5054333;28;20033;-66
2023/10/27 02:08:20;;;;;;;168.30;129.68;;;30.00;99.90;;;;;;5054349;28;20029;-65
2023/10/27 02:10:47;;;;;;;120.78;88.85;;;30.00;99.90;;;;;;5054184;28;20025;-64
2023/10/27 02:13:13;;;;;;;111.65;83.55;;;30.10;99.90;;;;;;5054311;28;20037;-64
2023/10/27 02:15:40;;;;;;;121.50;88.82;;;30.10;99.90;;;;;;5054126;28;20028;-64
2023/10/27 02:18:07;;;;;;;122.15;89.82;;;30.10;99.90;;;;;;5054040;28;20021;-64
2023/10/27 02:20:33;;;;;;;112.15;80.50;;;30.10;99.90;;;;;;5054306;28;20025;-64
2023/10/27 02:23:00;;;;;;;99.88;75.32;;;30.20;99.90;;;;;;5054096;28;20021;-64
2023/10/27 02:25:27;;;;;;;100.88;75.82;;;30.30;99.90;;;;;;5053707;28;20132;-64
2023/10/27 02:27:53;;;;;;;108.18;78.93;;;30.30;99.90;;;;;;5054258;28;20028;-64
2023/10/27 02:30:20;;;;;;;112.75;81.65;;;30.30;99.90;;;;;;5053980;28;20424;-64
2023/10/27 02:32:47;;;;;;;121.78;84.28;;;30.40;99.90;;;;;;5053723;28;20112;-64
2023/10/27 02:35:13;;;;;;;109.22;81.82;;;30.40;99.90;;;;;;5053985;28;20484;-64
2023/10/27 02:37:40;;;;;;;112.82;82.25;;;30.50;99.90;;;;;;5053879;28;20040;-62
2023/10/27 02:40:07;;;;;;;139.60;106.18;;;30.60;99.90;;;;;;5053577;28;20029;-62
2023/10/27 02:42:38;;;;;;;123.63;91.32;;;30.70;99.90;;;;;;5053587;28;20416;-63
2023/10/27 02:45:06;;;;;;;140.05;98.53;;;30.70;99.90;;;;;;5053586;28;20017;-62
2023/10/27 02:47:33;;;;;;;108.57;80.80;;;30.70;99.90;;;;;;5053483;28;20033;-64
2023/10/27 02:50:00;;;;;;;160.02;115.60;;;30.70;99.90;;;;;;5053900;28;20017;-64
2023/10/27 02:52:27;;;;;;;99.20;75.00;;;30.70;99.90;;;;;;5053622;28;20024;-63
2023/10/27 02:54:54;;;;;;;104.22;71.30;;;30.70;99.90;;;;;;5053393;28;20029;-63
2023/10/27 02:57:21;;;;;;;88.07;67.47;;;30.80;99.90;;;;;;5057565;28;20033;-64
2023/10/27 02:59:47;;;;;;;108.32;81.78;;;30.80;99.90;;;;;;5062471;28;20032;-63
2023/10/27 03:02:14;;;;;;;101.95;74.25;;;30.90;99.90;;;;;;5073150;28;20033;-63
2023/10/27 03:04:41;;;;;;;109.63;76.53;;;31.00;99.90;;;;;;5073622;28;20505;-64
2023/10/27 03:07:07;;;;;;;102.90;71.28;;;31.10;99.90;;;;;;5073481;28;20491;-63
2023/10/27 03:09:34;;;;;;;104.40;74.35;;;31.20;99.90;;;;;;5073123;28;20020;-63
2023/10/27 03:12:01;;;;;;;99.85;75.47;;;31.30;99.90;;;;;;5073273;28;20082;-64
2023/10/27 03:14:27;;;;;;;106.53;74.63;;;31.40;99.90;;;;;;5073328;28;20544;-64
2023/10/27 03:16:54;;;;;;;107.07;75.20;;;31.40;99.90;;;;;;5073376;28;20024;-62
2023/10/27 03:19:21;;;;;;;110.50;79.45;;;31.50;99.90;;;;;;5072487;28;20032;-64
2023/10/27 03:21:48;;;;;;;114.47;79.15;;;31.60;99.90;;;;;;5073224;28;20024;-65
2023/10/27 03:24:14;;;;;;;114.55;79.53;;;31.60;99.90;;;;;;5073023;28;20060;-62
2023/10/27 03:26:41;;;;;;;123.45;85.38;;;31.70;99.90;;;;;;5072611;28;20044;-64
2023/10/27 03:29:08;;;;;;;120.45;86.15;;;31.80;99.90;;;;;;5073100;28;20024;-62
2023/10/27 03:31:35;;;;;;;123.38;88.40;;;31.80;99.90;;;;;;5073054;28;20097;-62
2023/10/27 03:34:02;;;;;;;125.13;89.18;;;31.80;99.90;;;;;;5073033;28;20024;-65
2023/10/27 03:36:28;;;;;;;121.07;83.43;;;31.80;99.90;;;;;;5073088;28;20025;-64
2023/10/27 03:38:55;;;;;;;134.63;88.28;;;31.80;99.90;;;;;;5071923;28;20025;-63
2023/10/27 03:41:22;;;;;;;132.20;88.05;;;31.80;99.90;;;;;;5071684;28;20024;-62
2023/10/27 03:43:48;;;;;;;129.07;87.95;;;31.90;99.90;;;;;;5072513;28;20025;-62
2023/10/27 03:46:15;;;;;;;126.65;85.03;;;31.90;99.90;;;;;;5072956;28;20024;-62
2023/10/27 03:48:44;;;;;;;126.85;85.60;;;32.00;99.90;;;;;;5072543;28;20395;-62
2023/10/27 03:51:11;;;;;;;118.75;82.50;;;32.10;99.90;;;;;;5065446;28;20016;-62
2023/10/27 03:53:38;;;;;;;136.07;88.05;;;32.10;99.90;;;;;;5062510;28;20025;-62
2023/10/27 03:56:05;;;;;;;132.57;87.68;;;32.20;99.90;;;;;;5052900;28;20033;-62
2023/10/27 03:58:31;;;;;;;129.75;86.80;;;32.20;99.90;;;;;;5053664;28;20025;-62
2023/10/27 04:00:58;;;;;;;189.15;126.57;;;32.30;99.90;;;;;;5062516;28;20013;-62
2023/10/27 04:03:25;;;;;;;135.10;91.45;;;32.30;99.90;;;;;;5063418;28;20028;-62
2023/10/27 04:05:52;;;;;;;130.45;90.28;;;32.20;99.90;;;;;;5060404;28;20033;-59
2023/10/27 04:08:18;;;;;;;196.82;125.72;;;32.20;99.90;;;;;;5065929;28;20062;-62
2023/10/27 04:10:45;;;;;;;128.60;89.95;;;32.10;99.90;;;;;;5066590;28;20048;-64
2023/10/27 04:13:14;;;;;;;118.97;83.45;;;32.10;99.90;;;;;;5055901;28;20021;-62
2023/10/27 04:15:40;;;;;;;114.22;81.05;;;32.20;99.90;;;;;;5055560;28;20120;-62
2023/10/27 04:18:07;;;;;;;121.82;82.88;;;32.20;99.90;;;;;;5057002;28;20025;-61
2023/10/27 04:20:34;;;;;;;115.93;81.22;;;32.30;99.90;;;;;;5064151;28;20024;-63
2023/10/27 04:23:00;;;;;;;117.22;82.80;;;32.20;99.90;;;;;;5055542;28;20028;-63
2023/10/27 04:25:28;;;;;;;103.90;74.00;;;32.30;99.90;;;;;;5056142;28;20049;-63
2023/10/27 04:27:55;;;;;;;97.03;68.72;;;32.30;99.90;;;;;;5055056;28;20025;-62
2023/10/27 04:30:21;;;;;;;100.97;71.07;;;32.40;99.90;;;;;;5058597;28;20392;-62
2023/10/27 04:32:48;;;;;;;89.55;64.25;;;32.60;99.90;;;;;;5057817;28;20044;-62
2023/10/27 04:35:17;;;;;;;89.05;64.30;;;32.70;99.90;;;;;;5052747;28;20083;-61
2023/10/27 04:37:44;;;;;;;91.28;64.30;;;32.70;99.90;;;;;;5053782;28;20280;-62
2023/10/27 04:40:11;;;;;;;89.95;65.53;;;32.70;99.90;;;;;;5064861;28;20523;-63
2023/10/27 04:42:38;;;;;;;90.15;65.07;;;32.80;99.90;;;;;;5071592;28;20037;-61
2023/10/27 04:45:05;;;;;;;87.18;63.25;;;32.80;99.90;;;;;;5064076;28;20016;-61
2023/10/27 04:47:32;;;;;;;83.40;62.78;;;32.90;99.90;;;;;;5060349;28;20051;-62
2023/10/27 04:49:58;;;;;;;94.03;65.07;;;32.90;99.90;;;;;;5060479;28;20036;-63
2023/10/27 04:52:25;;;;;;;83.03;63.95;;;32.90;99.90;;;;;;5071112;28;20396;-63
2023/10/27 04:54:52;;;;;;;95.13;66.18;;;32.90;99.90;;;;;;5075425;28;20028;-61
2023/10/27 04:57:19;;;;;;;88.80;65.30;;;32.90;99.90;;;;;;5075577;28;20032;-61
2023/10/27 04:59:46;;;;;;;94.13;68.47;;;32.90;99.90;;;;;;5075678;28;20427;-62
2023/10/27 05:02:12;;;;;;;103.25;74.40;;;33.10;99.90;;;;;;5075514;28;20041;-62
2023/10/27 05:04:39;;;;;;;90.57;70.10;;;33.10;99.90;;;;;;5075444;28;20035;-62
2023/10/27 05:07:06;;;;;;;99.75;70.13;;;33.20;99.90;;;;;;5075404;28;20021;-62
2023/10/27 05:09:33;;;;;;;94.82;67.72;;;33.20;99.90;;;;;;5075070;28;20104;-63
2023/10/27 05:12:00;;;;;;;97.25;69.25;;;33.30;99.90;;;;;;5075487;28;20024;-60
2023/10/27 05:14:27;;;;;;;92.90;66.78;;;33.30;99.90;;;;;;5074969;28;20031;-62
2023/10/27 05:16:53;;;;;;;90.75;68.05;;;33.30;99.90;;;;;;5075017;28;20032;-61
2023/10/27 05:19:20;;;;;;;101.70;71.57;;;33.30;99.90;;;;;;5075089;28;20034;-61
2023/10/27 05:21:47;;;;;;;101.05;70.82;;;33.20;99.90;;;;;;5075302;28;20028;-60
2023/10/27 05:24:13;;;;;;;97.00;73.28;;;33.20;99.90;;;;;;5075584;28;20049;-61
2023/10/27 05:26:40;;;;;;;101.78;71.90;;;33.30;99.90;;;;;;5075250;28;20104;-61
2023/10/27 05:29:07;;;;;;;97.78;69.50;;;33.20;99.90;;;;;;5075566;28;20019;-61
2023/10/27 05:31:34;;;;;;;101.82;70.28;;;33.20;99.90;;;;;;5075565;28;20021;-62
2023/10/27 05:34:01;;;;;;;106.63;74.03;;;33.20;99.90;;;;;;5075256;28;20029;-62
2023/10/27 05:36:28;;;;;;;96.72;70.57;;;33.40;99.90;;;;;;5075700;28;20384;-62
2023/10/27 05:38:55;;;;;;;110.60;73.07;;;33.40;99.90;;;;;;5070029;28;20025;-64
2023/10/27 05:41:21;;;;;;;103.95;75.10;;;33.50;99.90;;;;;;5065344;28;20024;-62
2023/10/27 05:43:50;;;;;;;105.78;73.25;;;33.60;99.90;;;;;;5065172;28;20376;-63
2023/10/27 05:46:18;;;;;;;109.00;76.60;;;33.60;99.90;;;;;;5066083;28;20535;-63
2023/10/27 05:48:45;;;;;;;101.38;71.40;;;33.70;99.90;;;;;;5069273;28;20400;-64
2023/10/27 05:51:12;;;;;;;92.65;66.32;;;33.80;99.90;;;;;;5069835;28;20575;-63
2023/10/27 05:53:38;;;;;;;111.75;77.68;;;33.80;99.90;;;;;;5069632;28;20048;-64
2023/10/27 05:56:05;;;;;;;108.45;78.72;;;33.80;98.70;;;;;;5069533;28;20017;-62
2023/10/27 05:58:33;;;;;;;121.28;80.07;;;33.70;99.90;;;;;;5069659;28;20039;-61
2023/10/27 06:01:01;;;;;;;109.82;78.15;;;33.80;99.90;;;;;;5058643;28;20431;-64
2023/10/27 06:03:27;;;;;;;106.53;80.13;;;33.80;99.90;;;;;;5058201;28;20029;-63
2023/10/27 06:05:54;;;;;;;113.60;81.25;;;33.90;99.90;;;;;;5058671;28;20025;-64
2023/10/27 06:08:21;;;;;;;122.93;84.97;;;34.00;99.90;;;;;;5056645;28;20124;-64
2023/10/27 06:10:48;;;;;;;121.63;85.22;;;34.10;99.90;;;;;;5057630;28;20052;-63
2023/10/27 06:13:14;;;;;;;128.95;84.88;;;34.10;99.40;;;;;;5062189;28;20037;-64
2023/10/27 06:15:41;;;;;;;109.82;79.13;;;34.20;99.90;;;;;;5064125;28;20036;-63
2023/10/27 06:18:08;;;;;;;117.97;81.07;;;34.40;99.60;;;;;;5069881;28;20430;-61
2023/10/27 06:20:35;;;;;;;113.28;82.90;;;34.40;99.40;;;;;;5057858;28;20074;-62
2023/10/27 06:23:02;;;;;;;119.43;79.38;;;34.40;99.20;;;;;;5055668;28;20013;-62
2023/10/27 06:25:28;;;;;;;118.03;84.18;;;34.40;99.40;;;;;;5062983;28;20539;-63
2023/10/27 06:27:55;;;;;;;127.38;83.65;;;34.50;99.50;;;;;;5069397;28;20373;-66
2023/10/27 06:30:23;;;;;;;116.38;79.88;;;34.50;98.40;;;;;;5069960;28;20067;-66
2023/10/27 06:32:49;;;;;;;95.70;68.32;;;34.50;98.60;;;;;;5069346;28;20031;-66
2023/10/27 06:35:16;;;;;;;98.53;69.10;;;34.60;97.50;;;;;;5069246;28;20012;-66
2023/10/27 06:37:43;;;;;;;104.40;69.60;;;34.60;97.50;;;;;;5069401;28;20033;-63
2023/10/27 06:40:10;;;;;;;99.25;72.15;;;34.60;97.00;;;;;;5057440;28;20017;-65
2023/10/27 06:42:37;;;;;;;99.25;70.05;;;34.70;97.40;;;;;;5057484;28;20020;-63
2023/10/27 06:45:04;;;;;;;89.60;62.72;;;34.70;96.40;;;;;;5054968;28;20024;-65
2023/10/27 06:47:31;;;;;;;94.43;68.03;;;34.70;96.60;;;;;;5055023;28;20060;-64
2023/10/27 06:49:58;;;;;;;94.43;67.20;;;34.70;97.10;;;;;;5067867;28;20031;-63
2023/10/27 06:52:25;;;;;;;98.15;74.15;;;34.70;97.20;;;;;;5070643;28;20023;-65
2023/10/27 06:54:51;;;;;;;131.23;95.10;;;34.80;97.30;;;;;;5069963;28;20017;-64
2023/10/27 06:57:18;;;;;;;114.50;84.22;;;34.80;97.40;;;;;;5068368;28;20534;-64
2023/10/27 06:59:45;;;;;;;108.80;80.28;;;34.90;96.90;;;;;;5070066;28;20035;-65
2023/10/27 07:02:12;;;;;;;158.07;121.32;;;34.90;96.50;;;;;;5069257;28;20021;-64
2023/10/27 07:04:38;;;;;;;109.43;83.93;;;35.00;96.60;;;;;;5055457;28;20020;-63
2023/10/27 07:07:05;;;;;;;123.28;92.22;;;35.00;95.90;;;;;;5055336;28;20021;-64
2023/10/27 07:09:32;;;;;;;86.65;64.70;;;35.00;96.30;;;;;;5067615;28;20017;-64
2023/10/27 07:12:00;;;;;;;107.65;81.57;;;35.00;95.30;;;;;;5057544;28;20100;-63
2023/10/27 07:14:27;;;;;;;288.02;223.00;;;34.90;95.10;;;;;;5055195;28;20021;-64
2023/10/27 07:16:56;;;;;;;155.18;117.15;;;34.90;95.60;;;;;;5059648;28;20401;-63
2023/10/27 07:19:25;;;;;;;95.10;64.47;;;34.90;95.70;;;;;;5063378;28;20519;-63
2023/10/27 07:21:51;;;;;;;81.13;61.58;;;34.90;95.60;;;;;;5063891;28;20055;-63
2023/10/27 07:24:18;;;;;;;83.47;59.45;;;35.00;95.40;;;;;;5065560;28;20547;-62
2023/10/27 07:26:45;;;;;;;79.93;58.20;;;35.00;95.20;;;;;;5062691;28;20060;-63
2023/10/27 07:29:11;;;;;;;94.15;62.35;;;35.00;94.20;;;;;;5065491;28;20017;-64
2023/10/27 07:31:38;;;;;;;144.35;103.90;;;35.00;93.80;;;;;;5059143;28;20467;-64
2023/10/27 07:34:06;;;;;;;115.80;84.70;;;35.00;94.60;;;;;;5059995;28;20451;-67
2023/10/27 07:36:33;;;;;;;81.63;61.17;;;35.00;94.50;;;;;;5060803;28;20059;-66
2023/10/27 07:39:00;;;;;;;82.85;59.65;;;35.00;94.00;;;;;;5060924;28;20024;-66
2023/10/27 07:41:26;;;;;;;73.20;56.78;;;35.00;94.40;;;;;;5062057;28;20410;-66
2023/10/27 07:43:53;;;;;;;85.35;60.05;;;34.90;92.90;;;;;;5062714;28;20029;-64
2023/10/27 07:46:20;;;;;;;79.88;60.65;;;34.90;92.90;;;;;;5061047;28;20468;-63
2023/10/27 07:48:46;;;;;;;79.40;57.60;;;35.00;94.00;;;;;;5062007;28;20380;-65
2023/10/27 07:51:13;;;;;;;87.03;61.92;;;35.00;92.70;;;;;;5062366;28;20100;-65
2023/10/27 07:53:40;;;;;;;81.57;60.22;;;35.00;93.40;;;;;;5066353;28;20020;-64
2023/10/27 07:56:08;;;;;;;80.95;58.92;;;35.10;94.10;;;;;;5067585;28;20480;-64
2023/10/27 07:58:35;;;;;;;85.35;61.47;;;35.10;93.50;;;;;;5067397;28;20082;-64
2023/10/27 08:01:05;;;;;;;83.15;60.92;;;35.10;93.30;;;;;;5067028;28;20482;-64
2023/10/27 08:03:33;;;;;;;85.43;61.33;;;35.10;93.20;;;;;;5067150;28;20027;-63
2023/10/27 08:06:02;;;;;;;84.10;59.95;;;35.00;92.70;;;;;;5058651;28;20499;-64
2023/10/27 08:08:28;;;;;;;84.15;60.25;;;35.00;93.20;;;;;;5072617;28;20052;-64
2023/10/27 08:10:55;;;;;;;79.30;59.50;;;34.90;93.20;;;;;;5072789;28;20024;-64
2023/10/27 08:13:22;;;;;;;87.00;58.65;;;34.90;93.00;;;;;;5076261;28;20028;-65
2023/10/27 08:15:49;;;;;;;84.35;58.03;;;34.90;92.90;;;;;;5070194;28;20033;-64
2023/10/27 08:18:16;;;;;;;98.07;68.35;;;34.90;93.30;;;;;;5076721;28;20032;-66
2023/10/27 08:20:43;;;;;;;138.75;103.80;;;34.90;93.50;;;;;;5075953;28;20343;-65
2023/10/27 08:23:10;;;;;;;134.18;96.00;;;34.90;93.70;;;;;;5076186;28;20032;-64
2023/10/27 08:25:37;;;;;;;73.55;54.00;;;34.90;93.30;;;;;;5076183;28;20102;-65
2023/10/27 08:28:05;;;;;;;75.80;57.35;;;34.90;92.90;;;;;;5076394;28;20020;-65
2023/10/27 08:30:33;;;;;;;71.43;55.72;;;34.80;92.00;;;;;;5076187;28;20025;-63
2023/10/27 08:32:59;;;;;;;73.32;54.35;;;34.70;91.90;;;;;;5076206;28;20032;-65
2023/10/27 08:35:26;;;;;;;144.65;108.97;;;34.70;92.60;;;;;;5067640;28;20492;-64
2023/10/27 08:37:53;;;;;;;128.90;92.40;;;34.80;93.10;;;;;;5073131;28;20245;-65
2023/10/27 08:40:20;;;;;;;361.95;257.58;;;34.70;92.60;;;;;;5075180;28;20192;-64
2023/10/27 08:42:49;;;;;;;79.60;59.58;;;34.70;92.30;;;;;;5061211;28;20033;-65
2023/10/27 08:45:16;;;;;;;74.70;53.78;;;34.70;92.70;;;;;;5055966;28;20017;-65
2023/10/27 08:47:43;;;;;;;74.60;54.15;;;34.70;92.70;;;;;;5055931;28;20064;-65
2023/10/27 08:50:10;;;;;;;82.80;57.83;;;34.70;92.80;;;;;;5055897;28;20032;-64
2023/10/27 08:52:39;;;;;;;75.32;56.45;;;34.70;92.80;;;;;;5055760;28;20497;-64
2023/10/27 08:55:09;;;;;;;79.43;57.15;;;34.70;92.10;;;;;;5055769;28;20063;-64
2023/10/27 08:57:36;;;;;;;72.63;53.22;;;34.70;91.80;;;;;;5055787;28;20091;-64
2023/10/27 09:00:06;;;;;;;70.93;51.78;;;34.70;92.10;;;;;;5055576;28;20205;-64
2023/10/27 09:02:33;;;;;;;67.75;51.03;;;34.70;92.50;;;;;;5055551;28;20061;-64
2023/10/27 09:05:04;;;;;;;63.22;48.00;;;34.70;92.40;;;;;;5069021;28;20412;-65
2023/10/27 09:07:32;;;;;;;56.77;43.60;;;34.70;92.20;;;;;;5075401;28;20028;-65
2023/10/27 09:10:00;;;;;;;59.65;44.53;;;34.70;92.10;;;;;;5075436;28;20020;-64
2023/10/27 09:12:29;;;;;;;56.35;41.85;;;34.60;92.10;;;;;;5075416;28;20024;-65
2023/10/27 09:15:04;;;;;;;57.80;42.80;;;34.60;92.30;;;;;;5075330;28;20077;-64
2023/10/27 09:17:31;;;;;;;60.60;45.63;;;34.60;92.10;;;;;;5075628;28;20048;-64
2023/10/27 09:20:09;;;;;;;62.30;45.15;;;34.50;92.20;;;;;;5075308;28;20044;-63
2023/10/27 09:22:37;;;;;;;54.38;40.97;;;34.50;91.80;;;;;;5061047;28;20051;-65
2023/10/27 09:25:28;;;;;;;48.72;37.30;;;34.50;91.50;;;;;;5068903;28;20048;-65
2023/10/27 09:27:56;;;;;;;49.83;38.53;;;34.50;91.30;;;;;;5065268;28;20013;-65
2023/10/27 09:30:28;;;;;;;55.17;40.70;;;34.50;91.00;;;;;;5063928;28;20562;-65
2023/10/27 09:32:56;;;;;;;71.32;49.40;;;34.40;90.80;;;;;;5064604;28;20499;-65
2023/10/27 09:35:24;;;;;;;71.75;46.22;;;34.40;91.60;;;;;;5065778;28;20021;-65
2023/10/27 09:37:54;;;;;;;66.65;42.75;;;34.40;90.70;;;;;;5064368;28;20017;-66
2023/10/27 09:40:21;;;;;;;62.92;40.92;;;34.40;90.20;;;;;;5065124;28;20036;-65
2023/10/27 09:42:53;;;;;;;89.97;51.17;;;34.30;90.90;;;;;;5061151;28;20115;-65
2023/10/27 09:45:25;;;;;;;477.27;310.65;;;34.40;90.50;;;;;;5069736;28;20020;-66
2023/10/27 09:47:55;;;;;;;666.78;446.73;;;34.40;90.60;;;;;;5067472;28;20018;-66
2023/10/27 09:50:25;;;;;;;321.98;217.90;;;34.40;90.60;;;;;;5066868;28;20043;-67
2023/10/27 09:52:55;;;;;;;754.15;466.27;;;34.30;90.20;;;;;;5063127;28;20124;-65
2023/10/27 09:55:22;;;;;;;942.10;526.83;;;34.30;90.00;;;;;;5061147;28;20031;-65
2023/10/27 09:57:48;;;;;;;304.70;171.15;;;34.30;90.30;;;;;;5065325;28;20025;-65
2023/10/27 10:00:20;;;;;;;116.25;64.18;;;34.30;89.50;;;;;;5066950;28;20021;-64
2023/10/27 10:02:48;;;;;;;104.00;57.08;;;34.20;88.50;;;;;;5061273;28;20112;-65
2023/10/27 10:05:15;;;;;;;79.70;48.22;;;34.10;87.90;;;;;;5059178;28;20016;-65
2023/10/27 10:07:47;;;;;;;68.72;44.97;;;34.10;87.50;;;;;;5060050;28;20061;-65
2023/10/27 10:10:17;;;;;;;67.63;45.55;;;34.00;87.00;;;;;;5068516;28;20103;-66
2023/10/27 10:13:05;;;;;;;70.75;48.55;;;34.00;87.20;;;;;;5069030;28;20064;-67
2023/10/27 10:15:36;;;;;;;69.80;45.20;;;34.00;88.80;;;;;;5069761;28;20411;-66
2023/10/27 10:18:05;;;;;;;67.73;45.43;;;34.00;88.60;;;;;;5068222;28;20437;-65
2023/10/27 10:20:44;;;;;;;58.80;41.53;;;33.90;88.20;;;;;;5070008;28;20074;-67
2023/10/27 10:23:12;;;;;;;77.07;46.90;;;33.90;88.20;;;;;;5063482;28;20115;-66
2023/10/27 10:25:59;;;;;;;68.95;45.13;;;33.90;88.80;;;;;;5062936;28;20043;-66
2023/10/27 10:28:33;;;;;;;66.88;44.03;;;33.90;89.00;;;;;;5063034;28;20036;-67
2023/10/27 10:31:11;;;;;;;55.53;40.60;;;33.80;90.00;;;;;;5063651;28;20013;-71
2023/10/27 10:33:40;;;;;;;59.53;40.05;;;33.80;88.80;;;;;;5063561;28;20031;-66
2023/10/27 10:36:18;;;;;;;61.63;41.35;;;33.80;90.10;;;;;;5062505;28;20028;-64
2023/10/27 10:38:57;;;;;;;73.80;45.72;;;33.80;89.90;;;;;;5062523;28;20029;-67
2023/10/27 10:41:43;;;;;;;66.43;45.17;;;33.70;90.30;;;;;;5063314;28;20041;-65
2023/10/27 10:44:15;;;;;;;80.95;49.35;;;33.60;90.30;;;;;;5059419;28;20028;-66
2023/10/27 10:46:44;;;;;;;73.55;52.10;;;33.60;90.70;;;;;;5063319;28;20016;-65
2023/10/27 10:49:21;;;;;;;76.50;54.50;;;33.50;90.30;;;;;;5061683;28;20481;-66
2023/10/27 10:51:57;;;;;;;120.38;73.63;;;33.50;90.50;;;;;;5067262;28;20036;-64
2023/10/27 10:54:30;;;;;;;104.18;66.50;;;33.40;90.30;;;;;;5064103;28;20571;-64
2023/10/27 10:57:12;;;;;;;118.75;75.78;;;33.40;90.40;;;;;;5063413;28;20531;-62
2023/10/27 10:59:51;;;;;;;97.13;65.80;;;33.30;90.70;;;;;;5062540;28;20033;-63
2023/10/27 11:02:21;;;;;;;103.95;70.15;;;33.30;91.10;;;;;;5060411;28;20377;-65
2023/10/27 11:04:51;;;;;;;107.00;69.22;;;33.30;91.40;;;;;;5061771;28;20133;-64
2023/10/27 11:07:20;;;;;;;89.43;60.40;;;33.30;91.20;;;;;;5059774;28;20017;-64
2023/10/27 11:09:47;;;;;;;90.18;60.20;;;33.20;91.20;;;;;;5070366;28;20051;-65
2023/10/27 11:12:26;;;;;;;117.93;73.93;;;33.20;91.70;;;;;;5065389;28;20107;-64
2023/10/27 11:14:53;;;;;;;132.48;88.57;;;33.10;91.60;;;;;;5066739;28;20066;-63
2023/10/27 11:17:20;;;;;;;144.43;96.85;;;33.00;91.40;;;;;;5063575;28;20062;-62
2023/10/27 11:19:55;;;;;;;162.85;110.35;;;33.00;91.40;;;;;;5065158;28;20468;-63
2023/10/27 11:22:27;;;;;;;183.88;126.95;;;33.00;91.80;;;;;;5064629;28;20092;-65
2023/10/27 11:24:54;;;;;;;203.32;140.32;;;32.90;91.50;;;;;;5062284;28;20045;-65
2023/10/27 11:27:25;;;;;;;227.15;149.80;;;32.80;91.80;;;;;;5062394;28;20024;-63
2023/10/27 11:30:02;;;;;;;236.75;160.35;;;32.80;91.40;;;;;;5063968;28;20067;-64
2023/10/27 11:32:29;;;;;;;241.70;167.95;;;32.70;91.70;;;;;;5064532;28;20108;-62
2023/10/27 11:34:57;;;;;;;248.07;172.00;;;32.60;91.70;;;;;;5072560;28;20024;-63
2023/10/27 11:37:25;;;;;;;244.93;168.90;;;32.60;92.20;;;;;;5073240;28;20040;-64
2023/10/27 11:39:52;;;;;;;239.52;168.52;;;32.60;92.20;;;;;;5073352;28;20031;-64
2023/10/27 11:42:18;;;;;;;243.60;171.15;;;32.50;92.20;;;;;;5072923;28;20036;-65
2023/10/27 11:44:45;;;;;;;250.48;171.70;;;32.50;92.10;;;;;;5073089;28;20044;-64
2023/10/27 11:47:12;;;;;;;243.00;169.77;;;32.40;92.60;;;;;;5074443;28;20081;-62
2023/10/27 11:49:39;;;;;;;243.75;168.90;;;32.40;92.40;;;;;;5076961;28;20048;-62
2023/10/27 11:52:05;;;;;;;253.82;177.55;;;32.40;92.40;;;;;;5077015;28;20103;-62
2023/10/27 11:54:32;;;;;;;256.25;180.85;;;32.30;92.70;;;;;;5077243;28;20028;-62
2023/10/27 11:56:59;;;;;;;260.02;179.57;;;32.30;92.70;;;;;;5076775;28;20030;-63
2023/10/27 11:59:26;;;;;;;261.88;183.02;;;32.20;93.00;;;;;;5076934;28;20025;-62
2023/10/27 12:01:53;;;;;;;256.05;182.18;;;32.20;93.10;;;;;;5077064;28;20031;-62
2023/10/27 12:04:20;;;;;;;256.17;175.93;;;32.20;92.90;;;;;;5076725;28;20028;-63
2023/10/27 12:06:46;;;;;;;250.80;172.38;;;32.10;93.10;;;;;;5076689;28;20423;-63
2023/10/27 12:09:13;;;;;;;256.83;170.52;;;32.10;93.50;;;;;;5076680;28;20017;-63
2023/10/27 12:11:42;;;;;;;236.88;164.65;;;32.10;93.30;;;;;;5076606;28;20083;-63
2023/10/27 12:14:11;;;;;;;292.30;212.55;;;32.00;93.80;;;;;;5076640;28;20504;-63
2023/10/27 12:16:38;;;;;;;246.63;173.82;;;32.10;94.40;;;;;;5076517;28;20025;-64
2023/10/27 12:19:04;;;;;;;245.18;168.30;;;32.00;93.70;;;;;;5076323;28;20025;-64
2023/10/27 12:21:32;;;;;;;298.48;223.98;;;31.90;94.20;;;;;;5076774;28;20082;-64